createdAt,value
2022-11-14T00:02:16.299Z,68.70
2022-11-14T00:05:05.817Z,61.30
2022-11-14T00:07:55.400Z,66.10
2022-11-14T00:10:43.047Z,66.40
2022-11-14T00:13:30.584Z,66.60
2022-11-14T00:16:19.118Z,56.60
2022-11-14T00:19:09.022Z,60.10
2022-11-14T00:21:55.755Z,55.70
2022-11-14T00:24:42.746Z,64.90
2022-11-14T00:27:29.417Z,58.50
2022-11-14T00:30:18.447Z,61.00
2022-11-14T00:33:05.199Z,61.70
2022-11-14T00:35:54.652Z,50.70
2022-11-14T00:38:41.818Z,59.10
2022-11-14T00:41:29.187Z,55.80
2022-11-14T00:44:16.666Z,55.90
2022-11-14T00:47:03.632Z,60.20
2022-11-14T00:49:50.846Z,56.40
2022-11-14T00:52:38.190Z,59.80
2022-11-14T00:55:24.914Z,60.70
2022-11-14T00:58:12.591Z,59.20
2022-11-14T01:00:59.371Z,57.00
2022-11-14T01:03:50.516Z,58.30
2022-11-14T01:06:37.754Z,55.60
2022-11-14T01:09:25.003Z,53.80
2022-11-14T01:12:12.676Z,59.40
2022-11-14T01:15:00.163Z,57.80
2022-11-14T01:17:47.013Z,52.70
2022-11-14T01:20:34.053Z,57.40
2022-11-14T01:23:20.964Z,57.20
2022-11-14T01:26:13.874Z,59.60
2022-11-14T01:29:01.091Z,59.30
2022-11-14T01:31:50.318Z,57.70
2022-11-14T01:34:37.099Z,53.60
2022-11-14T01:37:24.264Z,58.70
2022-11-14T01:40:18.359Z,59.00
2022-11-14T01:43:11.069Z,57.00
2022-11-14T01:46:10.497Z,64.10
2022-11-14T01:49:22.498Z,58.20
2022-11-14T01:52:14.505Z,56.00
2022-11-14T01:55:06.279Z,56.60
2022-11-14T01:57:53.280Z,55.50
2022-11-14T02:00:42.110Z,60.10
2022-11-14T02:03:30.109Z,58.10
2022-11-14T02:06:22.538Z,53.40
2022-11-14T02:09:10.907Z,60.20
2022-11-14T02:12:03.734Z,59.20
2022-11-14T02:14:54.489Z,58.30
2022-11-14T02:17:43.146Z,61.60
2022-11-14T02:20:34.530Z,57.30
2022-11-14T02:23:29.977Z,57.40
2022-11-14T02:26:21.563Z,54.40
2022-11-14T02:29:10.401Z,56.10
2022-11-14T02:31:56.967Z,55.40
2022-11-14T02:34:43.627Z,54.70
2022-11-14T02:37:30.341Z,60.90
2022-11-14T02:40:17.813Z,56.60
2022-11-14T02:43:05.873Z,58.30
2022-11-14T02:45:54.558Z,59.60
2022-11-14T02:48:42.567Z,55.90
2022-11-14T02:51:29.878Z,54.90
2022-11-14T02:54:16.815Z,58.10
2022-11-14T02:57:03.837Z,55.20
2022-11-14T02:59:51.883Z,55.90
2022-11-14T03:02:38.502Z,53.50
2022-11-14T03:05:26.019Z,58.10
2022-11-14T03:08:13.097Z,56.20
2022-11-14T03:11:07.460Z,60.70
2022-11-14T03:13:54.836Z,56.20
2022-11-14T03:16:41.742Z,58.00
2022-11-14T03:19:28.307Z,58.50
2022-11-14T03:22:16.103Z,57.20
2022-11-14T03:25:03.223Z,59.10
2022-11-14T03:27:49.999Z,57.30
2022-11-14T03:30:37.006Z,56.80
2022-11-14T03:33:24.280Z,55.00
2022-11-14T03:36:11.220Z,56.80
2022-11-14T03:38:58.584Z,58.40
2022-11-14T03:41:46.477Z,57.50
2022-11-14T03:44:34.889Z,55.30
2022-11-14T03:47:21.937Z,60.00
2022-11-14T03:50:11.109Z,57.90
2022-11-14T03:52:58.883Z,60.20
2022-11-14T03:55:46.298Z,64.00
2022-11-14T03:58:33.251Z,53.80
2022-11-14T04:01:22.526Z,57.80
2022-11-14T04:04:11.195Z,57.00
2022-11-14T04:07:00.814Z,53.30
2022-11-14T04:09:47.497Z,55.20
2022-11-14T04:12:34.133Z,56.40
2022-11-14T04:15:21.406Z,52.50
2022-11-14T04:18:08.293Z,54.30
2022-11-14T04:20:55.408Z,54.60
2022-11-14T04:23:42.199Z,55.60
2022-11-14T04:26:30.628Z,54.00
2022-11-14T04:29:17.833Z,54.80
2022-11-14T04:32:05.962Z,51.20
2022-11-14T04:34:52.908Z,49.90
2022-11-14T04:37:39.652Z,48.50
2022-11-14T04:40:26.401Z,49.70
2022-11-14T04:43:13.860Z,53.30
2022-11-14T04:46:03.792Z,49.60
2022-11-14T04:48:51.245Z,53.20
2022-11-14T04:51:39.021Z,50.60
2022-11-14T04:54:50.813Z,53.30
2022-11-14T04:57:37.699Z,51.40
2022-11-14T05:00:26.717Z,49.30
2022-11-14T05:03:14.046Z,47.30
2022-11-14T05:06:02.352Z,48.90
2022-11-14T05:08:49.130Z,47.60
2022-11-14T05:11:37.230Z,49.40
2022-11-14T05:14:25.711Z,48.10
2022-11-14T05:17:16.215Z,48.50
2022-11-14T05:20:08.918Z,48.10
2022-11-14T05:23:20.341Z,50.60
2022-11-14T05:26:13.060Z,48.30
2022-11-14T05:29:02.272Z,48.20
2022-11-14T05:31:53.445Z,46.60
2022-11-14T05:34:40.731Z,50.40
2022-11-14T05:37:28.835Z,47.50
2022-11-14T05:40:17.275Z,50.90
2022-11-14T05:43:10.032Z,45.60
2022-11-14T05:46:03.236Z,45.40
2022-11-14T05:48:53.105Z,46.60
2022-11-14T05:51:50.782Z,48.40
2022-11-14T05:54:41.212Z,45.40
2022-11-14T05:57:29.181Z,51.30
2022-11-14T06:00:18.525Z,60.60
2022-11-14T06:03:07.418Z,56.10
2022-11-14T06:06:05.042Z,52.20
2022-11-14T06:08:54.958Z,48.20
2022-11-14T06:11:41.763Z,46.50
2022-11-14T06:14:30.707Z,46.00
2022-11-14T06:17:20.181Z,44.40
2022-11-14T06:20:09.225Z,44.50
2022-11-14T06:22:59.252Z,43.60
2022-11-14T06:25:55.161Z,75.80
2022-11-14T06:28:42.221Z,114.40
2022-11-14T06:31:29.549Z,86.90
2022-11-14T06:34:17.058Z,102.10
2022-11-14T06:37:08.684Z,83.90
2022-11-14T06:40:02.401Z,81.40
2022-11-14T06:42:57.988Z,101.10
2022-11-14T06:45:49.027Z,114.00
2022-11-14T06:48:42.981Z,69.50
2022-11-14T06:51:34.558Z,58.40
2022-11-14T06:54:22.516Z,73.50
2022-11-14T06:57:13.179Z,57.00
2022-11-14T07:00:23.737Z,71.40
2022-11-14T07:07:10.424Z,130.10
2022-11-14T07:09:58.988Z,151.40
2022-11-14T07:13:13.613Z,85.80
2022-11-14T07:16:09.635Z,107.40
2022-11-14T07:19:28.096Z,134.30
2022-11-14T07:22:53.007Z,136.60
2022-11-14T07:25:42.127Z,96.40
2022-11-14T07:28:32.228Z,144.40
2022-11-14T07:31:26.458Z,107.10
2022-11-14T07:34:12.133Z,154.70
2022-11-14T07:37:04.391Z,126.50
2022-11-14T07:39:51.095Z,119.50
2022-11-14T07:45:52.289Z,69.80
2022-11-14T07:49:03.805Z,75.20
2022-11-14T07:51:53.505Z,67.10
2022-11-14T07:54:40.450Z,63.70
2022-11-14T07:57:26.960Z,105.20
2022-11-14T08:03:26.021Z,72.20
2022-11-14T08:06:17.482Z,49.00
2022-11-14T08:09:06.931Z,103.80
2022-11-14T08:12:19.260Z,81.90
2022-11-14T08:15:14.652Z,74.10
2022-11-14T08:18:06.771Z,58.40
2022-11-14T08:20:59.561Z,43.10
2022-11-14T08:24:16.150Z,59.50
2022-11-14T08:27:03.581Z,52.00
2022-11-14T08:30:01.871Z,61.20
2022-11-14T08:32:48.116Z,48.10
2022-11-14T08:46:44.512Z,34.90
2022-11-14T08:49:33.985Z,45.50
2022-11-14T08:52:28.541Z,34.90
2022-11-14T08:58:02.498Z,33.80
2022-11-14T09:00:48.088Z,38.70
2022-11-14T09:03:34.045Z,42.80
2022-11-14T09:06:20.015Z,35.60
2022-11-14T09:09:06.646Z,33.30
2022-11-14T09:12:14.194Z,34.30
2022-11-14T09:15:34.788Z,34.30
2022-11-14T09:18:50.658Z,37.70
2022-11-14T09:21:50.032Z,35.30
2022-11-14T09:24:38.147Z,41.10
2022-11-14T09:27:36.022Z,31.90
2022-11-14T09:30:23.240Z,32.10
2022-11-14T09:33:11.952Z,33.00
2022-11-14T09:36:10.469Z,37.60
2022-11-14T09:39:11.451Z,40.20
2022-11-14T09:42:18.738Z,46.80
2022-11-14T09:45:39.641Z,40.40
2022-11-14T09:49:03.721Z,49.90
2022-11-14T09:55:13.722Z,45.30
2022-11-14T09:58:01.530Z,35.50
2022-11-14T10:00:57.223Z,41.30
2022-11-14T10:07:19.762Z,37.60
2022-11-14T10:14:09.021Z,46.10
2022-11-14T10:17:18.402Z,43.00
2022-11-14T11:05:32.559Z,40.90
2022-11-14T11:08:44.360Z,37.90
2022-11-14T11:15:24.832Z,43.50
2022-11-14T11:18:32.953Z,49.00
2022-11-14T11:21:28.639Z,46.70
2022-11-14T11:24:35.081Z,37.40
2022-11-14T11:27:28.155Z,37.90
2022-11-14T11:30:31.033Z,44.60
2022-11-14T11:37:09.623Z,41.70
2022-11-14T11:40:02.546Z,40.20
2022-11-14T11:50:35.250Z,37.70
2022-11-14T11:53:47.009Z,36.30
2022-11-14T11:56:36.218Z,39.50
2022-11-14T11:59:42.032Z,33.40
2022-11-14T12:02:32.213Z,34.50
2022-11-14T12:05:45.119Z,33.70
2022-11-14T12:08:38.351Z,33.60
2022-11-14T12:11:44.890Z,41.50
2022-11-14T12:15:01.125Z,39.10
2022-11-14T12:18:00.292Z,41.20
2022-11-14T12:21:42.762Z,38.60
2022-11-14T12:24:43.951Z,39.00
2022-11-14T12:28:00.059Z,45.60
2022-11-14T12:31:00.302Z,25.20
2022-11-14T12:34:17.046Z,26.60
2022-11-14T12:37:16.676Z,27.60
2022-11-14T12:40:32.929Z,22.30
2022-11-14T12:43:40.184Z,22.90
2022-11-14T12:47:08.599Z,29.40
2022-11-14T12:50:01.215Z,21.80
2022-11-14T12:52:51.959Z,22.20
2022-11-14T12:55:57.278Z,17.50
2022-11-14T12:59:01.992Z,24.70
2022-11-14T13:01:53.335Z,27.50
2022-11-14T13:05:00.400Z,22.60
2022-11-14T13:08:34.865Z,22.70
2022-11-14T13:12:02.280Z,24.90
2022-11-14T13:19:56.889Z,30.70
2022-11-14T13:26:42.809Z,23.40
2022-11-14T13:29:39.624Z,27.00
2022-11-14T13:41:47.035Z,23.20
2022-11-14T13:45:41.667Z,22.20
2022-11-14T13:48:53.760Z,23.90
2022-11-14T13:52:09.314Z,23.60
2022-11-14T13:57:10.166Z,29.80
2022-11-14T13:59:41.187Z,23.90
2022-11-14T14:03:16.647Z,26.30
2022-11-14T14:06:52.996Z,30.70
2022-11-14T14:10:36.004Z,24.70
2022-11-14T14:14:08.944Z,28.70
2022-11-14T14:21:29.391Z,32.70
2022-11-14T14:28:45.217Z,36.50
2022-11-14T14:31:40.840Z,31.90
2022-11-14T14:34:31.013Z,46.50
2022-11-14T14:37:33.400Z,66.30
2022-11-14T14:40:28.253Z,72.00
2022-11-14T14:43:34.879Z,52.70
2022-11-14T14:46:34.398Z,34.00
2022-11-14T14:49:37.835Z,29.50
2022-11-14T14:52:57.320Z,23.20
2022-11-14T14:59:25.682Z,23.10
2022-11-14T15:06:30.005Z,20.40
2022-11-14T15:09:30.797Z,21.70
2022-11-14T15:12:20.610Z,34.00
2022-11-14T15:15:19.019Z,24.30
2022-11-14T15:18:09.058Z,26.50
2022-11-14T15:21:13.747Z,27.00
2022-11-14T15:24:14.593Z,23.90
2022-11-14T15:27:06.091Z,25.50
2022-11-14T15:30:09.652Z,48.90
2022-11-14T15:33:05.371Z,63.00
2022-11-14T15:36:06.888Z,69.40
2022-11-14T15:39:24.340Z,50.00
2022-11-14T15:42:32.022Z,51.50
2022-11-14T15:45:26.270Z,48.50
2022-11-14T15:48:21.338Z,56.90
2022-11-14T15:51:09.530Z,35.20
2022-11-14T15:53:58.265Z,43.50
2022-11-14T15:56:47.964Z,129.70
2022-11-14T15:59:35.186Z,267.00
2022-11-14T16:02:26.782Z,102.00
2022-11-14T16:05:22.680Z,89.10
2022-11-14T16:08:12.932Z,79.30
2022-11-14T16:11:02.036Z,58.40
2022-11-14T16:13:49.028Z,51.00
2022-11-14T16:16:36.047Z,57.70
2022-11-14T16:19:23.219Z,53.30
2022-11-14T16:22:17.899Z,58.20
2022-11-14T16:25:06.208Z,226.50
2022-11-14T16:27:56.460Z,186.60
2022-11-14T16:30:44.246Z,151.20
2022-11-14T16:33:32.024Z,160.90
2022-11-14T16:36:23.323Z,144.60
2022-11-14T16:39:18.165Z,160.50
2022-11-14T16:42:08.510Z,157.10
2022-11-14T16:45:50.746Z,199.10
2022-11-14T16:48:45.272Z,133.70
2022-11-14T16:51:51.525Z,92.90
2022-11-14T16:54:41.272Z,134.40
2022-11-14T16:57:56.537Z,99.50
2022-11-14T17:03:34.301Z,139.40
2022-11-14T17:06:21.652Z,97.30
2022-11-14T17:09:08.869Z,116.60
2022-11-14T17:11:56.143Z,109.10
2022-11-14T17:14:51.806Z,121.40
2022-11-14T17:17:48.160Z,92.50
2022-11-14T17:20:38.930Z,102.30
2022-11-14T17:23:27.276Z,93.00
2022-11-14T17:26:14.297Z,97.50
2022-11-14T17:29:01.175Z,85.40
2022-11-14T17:31:51.471Z,99.80
2022-11-14T17:34:38.183Z,74.80
2022-11-14T17:37:28.824Z,108.20
2022-11-14T17:40:16.187Z,124.00
2022-11-14T17:43:03.272Z,122.00
2022-11-14T17:45:56.529Z,129.30
2022-11-14T17:48:47.352Z,149.70
2022-11-14T17:51:34.753Z,157.30
2022-11-14T17:54:27.040Z,154.30
2022-11-14T17:57:16.550Z,147.70
2022-11-14T18:00:09.542Z,154.20
2022-11-14T18:03:01.578Z,149.40
2022-11-14T18:05:58.830Z,147.20
2022-11-14T18:08:45.845Z,124.00
2022-11-14T18:11:35.126Z,104.10
2022-11-14T18:14:24.893Z,96.80
2022-11-14T18:17:13.684Z,102.90
2022-11-14T18:20:01.889Z,149.40
2022-11-14T18:22:50.626Z,152.60
2022-11-14T18:25:37.504Z,181.60
2022-11-14T18:28:24.509Z,356.40
2022-11-14T18:31:12.164Z,320.00
2022-11-14T18:33:58.909Z,241.60
2022-11-14T18:36:46.425Z,187.90
2022-11-14T18:39:33.284Z,169.30
2022-11-14T18:42:20.231Z,159.90
2022-11-14T18:45:57.607Z,129.90
2022-11-14T18:48:56.133Z,81.40
2022-11-14T18:52:05.497Z,68.70
2022-11-14T18:54:57.685Z,77.10
2022-11-14T18:57:45.306Z,58.30
2022-11-14T19:00:33.124Z,59.00
2022-11-14T19:03:21.130Z,52.30
2022-11-14T19:06:10.261Z,52.70
2022-11-14T19:09:08.151Z,65.00
2022-11-14T19:12:16.662Z,56.30
2022-11-14T19:15:04.260Z,45.70
2022-11-14T19:17:51.229Z,38.60
2022-11-14T19:20:39.731Z,38.30
2022-11-14T19:23:28.063Z,39.30
2022-11-14T19:26:15.146Z,37.90
2022-11-14T19:29:06.747Z,41.00
2022-11-14T19:31:54.666Z,34.80
2022-11-14T19:34:41.533Z,39.80
2022-11-14T19:37:30.031Z,38.10
2022-11-14T19:40:21.372Z,53.80
2022-11-14T19:43:11.881Z,55.80
2022-11-14T19:46:06.399Z,49.00
2022-11-14T19:48:58.784Z,46.00
2022-11-14T19:51:46.521Z,47.60
2022-11-14T19:54:33.541Z,37.90
2022-11-14T19:57:20.729Z,35.70
2022-11-14T20:00:09.265Z,31.50
2022-11-14T20:02:57.464Z,38.80
2022-11-14T20:05:46.151Z,54.90
2022-11-14T20:08:33.949Z,36.50
2022-11-14T20:11:22.270Z,27.90
2022-11-14T20:14:12.275Z,28.10
2022-11-14T20:16:59.692Z,27.30
2022-11-14T20:19:48.278Z,26.70
2022-11-14T20:22:42.105Z,26.00
2022-11-14T20:25:29.128Z,26.30
2022-11-14T20:28:16.483Z,28.00
2022-11-14T20:31:14.882Z,28.60
2022-11-14T20:34:05.030Z,26.50
2022-11-14T20:39:58.889Z,27.20
2022-11-14T20:42:49.235Z,25.60
2022-11-14T20:45:36.279Z,27.10
2022-11-14T20:48:24.212Z,30.10
2022-11-14T20:51:15.680Z,27.70
2022-11-14T20:54:03.520Z,31.30
2022-11-14T20:57:12.429Z,29.10
2022-11-14T21:00:13.639Z,28.30
2022-11-14T21:03:01.188Z,27.70
2022-11-14T21:05:51.351Z,27.50
2022-11-14T21:08:40.718Z,25.40
2022-11-14T21:11:28.445Z,23.90
2022-11-14T21:14:15.161Z,26.20
2022-11-14T21:17:02.175Z,25.50
2022-11-14T21:19:50.309Z,30.30
2022-11-14T21:22:40.252Z,26.00
2022-11-14T21:25:27.396Z,27.70
2022-11-14T21:28:15.278Z,30.60
2022-11-14T21:31:26.407Z,29.30
2022-11-14T21:34:15.769Z,33.70
2022-11-14T21:37:02.874Z,31.50
2022-11-14T21:39:49.267Z,32.80
2022-11-14T21:42:36.085Z,35.10
2022-11-14T21:45:22.920Z,28.00
2022-11-14T21:48:09.762Z,29.40
2022-11-14T21:51:07.641Z,33.50
2022-11-14T21:54:00.088Z,28.00
2022-11-14T21:56:46.564Z,26.20
2022-11-14T21:59:34.888Z,29.10
2022-11-14T22:02:40.857Z,29.50
2022-11-14T22:05:28.322Z,29.00
2022-11-14T22:08:16.026Z,27.90
2022-11-14T22:11:02.578Z,31.50
2022-11-14T22:13:50.125Z,31.80
2022-11-14T22:16:38.510Z,35.60
2022-11-14T22:19:28.327Z,35.70
2022-11-14T22:22:15.249Z,33.00
2022-11-14T22:25:03.429Z,28.30
2022-11-14T22:27:52.827Z,31.00
2022-11-14T22:30:40.732Z,27.70
2022-11-14T22:33:32.100Z,31.90
2022-11-14T22:36:25.344Z,49.50
2022-11-14T22:39:11.890Z,38.00
2022-11-14T22:41:58.495Z,38.70
2022-11-14T22:44:45.655Z,33.00
2022-11-14T22:47:32.462Z,31.10
2022-11-14T22:50:19.341Z,27.40
2022-11-14T22:53:06.548Z,29.00
2022-11-14T22:55:53.635Z,32.60
2022-11-14T22:58:42.336Z,32.00
2022-11-14T23:01:31.590Z,32.10
2022-11-14T23:04:18.582Z,31.10
2022-11-14T23:07:05.359Z,28.80
2022-11-14T23:09:52.346Z,29.30
2022-11-14T23:12:40.452Z,31.50
2022-11-14T23:15:27.309Z,34.30
2022-11-14T23:18:14.181Z,30.70
2022-11-14T23:21:08.500Z,34.00
2022-11-14T23:24:02.912Z,34.20
2022-11-14T23:29:39.060Z,52.40
2022-11-14T23:32:30.279Z,59.70
2022-11-14T23:35:18.627Z,56.80
2022-11-14T23:38:06.104Z,55.80
2022-11-14T23:41:00.962Z,79.70
2022-11-14T23:43:50.868Z,70.70
2022-11-14T23:46:37.190Z,71.20
2022-11-14T23:49:24.270Z,59.10
2022-11-14T23:52:11.297Z,54.70
2022-11-14T23:54:57.934Z,53.30
2022-11-14T23:57:48.087Z,52.10
